createdAt,value
2023-04-16T00:03:44.363Z,4.43
2023-04-16T00:07:46.368Z,3.10
2023-04-16T00:11:48.133Z,3.67
2023-04-16T00:15:49.953Z,3.78
2023-04-16T00:19:51.872Z,2.83
2023-04-16T00:23:53.798Z,2.55
2023-04-16T00:27:55.980Z,2.72
2023-04-16T00:31:57.853Z,3.00
2023-04-16T00:35:59.778Z,2.30
2023-04-16T00:40:01.988Z,2.97
2023-04-16T00:44:04.151Z,3.65
2023-04-16T00:48:06.162Z,2.50
2023-04-16T00:52:08.196Z,3.08
2023-04-16T00:56:10.603Z,2.42
2023-04-16T01:00:13.197Z,2.50
2023-04-16T01:04:15.463Z,2.42
2023-04-16T01:08:22.268Z,2.33
2023-04-16T01:12:24.068Z,2.30
2023-04-16T01:16:27.440Z,2.53
2023-04-16T01:20:29.848Z,3.08
2023-04-16T01:24:32.208Z,3.17
2023-04-16T01:28:34.195Z,3.28
2023-04-16T01:32:36.364Z,3.70
2023-04-16T01:36:38.303Z,3.70
2023-04-16T01:40:40.265Z,3.22
2023-04-16T01:44:42.104Z,4.45
2023-04-16T01:48:44.074Z,3.80
2023-04-16T01:52:46.082Z,3.38
2023-04-16T01:56:48.123Z,3.83
2023-04-16T02:00:50.186Z,3.45
2023-04-16T02:04:52.038Z,4.03
2023-04-16T02:08:54.156Z,3.80
2023-04-16T02:12:56.720Z,3.25
2023-04-16T02:16:59.053Z,4.85
2023-04-16T02:21:21.126Z,4.43
2023-04-16T02:25:24.447Z,3.45
2023-04-16T02:29:29.991Z,3.88
2023-04-16T02:33:39.421Z,3.05
2023-04-16T02:37:41.940Z,4.00
2023-04-16T02:41:43.805Z,3.17
2023-04-16T02:45:45.748Z,4.47
2023-04-16T02:49:47.704Z,4.00
2023-04-16T02:53:49.565Z,4.05
2023-04-16T02:57:53.017Z,3.25
2023-04-16T03:01:55.128Z,3.50
2023-04-16T03:05:57.246Z,3.20
2023-04-16T03:09:59.068Z,4.28
2023-04-16T03:14:00.923Z,3.38
2023-04-16T03:18:03.451Z,3.50
2023-04-16T03:22:05.568Z,2.88
2023-04-16T03:26:09.486Z,2.60
2023-04-16T03:30:12.704Z,3.15
2023-04-16T03:34:14.587Z,2.95
2023-04-16T03:38:16.957Z,2.67
2023-04-16T03:42:18.873Z,2.58
2023-04-16T03:46:21.144Z,3.05
2023-04-16T03:50:23.231Z,2.60
2023-04-16T03:54:25.093Z,2.25
2023-04-16T03:58:36.266Z,2.53
2023-04-16T04:02:38.372Z,2.70
2023-04-16T04:06:40.394Z,3.38
2023-04-16T04:10:42.306Z,2.72
2023-04-16T04:14:46.479Z,2.15
2023-04-16T04:18:48.529Z,3.10
2023-04-16T04:22:51.025Z,2.40
2023-04-16T04:26:55.385Z,2.65
2023-04-16T04:30:58.442Z,2.65
2023-04-16T04:35:02.126Z,3.28
2023-04-16T04:39:04.160Z,3.90
2023-04-16T04:43:06.076Z,3.47
2023-04-16T04:47:08.460Z,3.20
2023-04-16T04:51:10.744Z,2.75
2023-04-16T04:55:14.295Z,3.45
2023-04-16T04:59:16.483Z,2.95
2023-04-16T05:03:21.776Z,3.50
2023-04-16T05:07:23.778Z,4.05
2023-04-16T05:11:25.678Z,3.55
2023-04-16T05:15:27.561Z,5.18
2023-04-16T05:19:29.587Z,5.35
2023-04-16T05:23:31.474Z,5.15
2023-04-16T05:27:33.276Z,5.68
2023-04-16T05:31:35.076Z,4.72
2023-04-16T05:35:36.995Z,5.20
2023-04-16T05:39:38.766Z,5.00
2023-04-16T05:43:40.694Z,5.63
2023-04-16T05:47:42.562Z,6.10
2023-04-16T05:51:44.678Z,6.15
2023-04-16T05:55:47.274Z,6.57
2023-04-16T05:59:49.133Z,5.65
2023-04-16T06:03:51.040Z,6.68
2023-04-16T06:07:53.277Z,6.47
2023-04-16T06:11:55.606Z,6.70
2023-04-16T06:15:57.415Z,5.82
2023-04-16T06:19:59.292Z,6.00
2023-04-16T06:24:01.351Z,5.80
2023-04-16T06:28:03.242Z,7.45
2023-04-16T06:32:05.829Z,6.57
2023-04-16T06:36:07.701Z,6.72
2023-04-16T06:40:09.946Z,6.60
2023-04-16T06:44:11.965Z,6.63
2023-04-16T06:48:13.843Z,6.47
2023-04-16T06:52:15.860Z,6.82
2023-04-16T06:56:17.714Z,7.40
2023-04-16T07:00:19.549Z,6.28
2023-04-16T07:04:21.964Z,5.57
2023-04-16T07:08:23.830Z,6.53
2023-04-16T07:12:25.878Z,6.18
2023-04-16T07:16:27.747Z,6.47
2023-04-16T07:20:29.621Z,5.97
2023-04-16T07:24:31.460Z,5.38
2023-04-16T07:28:33.255Z,4.57
2023-04-16T07:32:35.654Z,5.32
2023-04-16T07:36:37.499Z,5.25
2023-04-16T07:40:39.394Z,5.93
2023-04-16T07:44:41.447Z,6.45
2023-04-16T07:48:43.431Z,5.63
2023-04-16T07:52:46.725Z,6.53
2023-04-16T07:56:48.574Z,5.70
2023-04-16T08:00:51.063Z,6.05
2023-04-16T08:04:53.096Z,5.78
2023-04-16T08:08:54.960Z,7.75
2023-04-16T08:12:57.115Z,7.65
2023-04-16T08:16:58.986Z,6.88
2023-04-16T08:21:00.861Z,7.45
2023-04-16T08:25:04.417Z,6.57
2023-04-16T08:29:06.215Z,5.88
2023-04-16T08:33:08.322Z,6.50
2023-04-16T08:37:10.550Z,6.50
2023-04-16T08:41:14.195Z,6.72
2023-04-16T08:45:18.224Z,7.85
2023-04-16T08:49:20.122Z,7.03
2023-04-16T08:53:29.093Z,8.48
2023-04-16T08:57:47.588Z,7.15
2023-04-16T09:01:49.896Z,6.90
2023-04-16T09:05:53.088Z,6.75
2023-04-16T09:09:55.307Z,6.82
2023-04-16T09:13:58.182Z,7.75
2023-04-16T09:18:00.158Z,7.47
2023-04-16T09:22:02.148Z,7.45
2023-04-16T09:26:05.281Z,6.45
2023-04-16T09:30:24.850Z,7.45
2023-04-16T09:34:27.246Z,7.25
2023-04-16T09:38:49.612Z,8.52
2023-04-16T09:42:52.494Z,7.72
2023-04-16T09:46:54.331Z,6.90
2023-04-16T09:50:56.601Z,7.80
2023-04-16T09:55:00.187Z,8.60
2023-04-16T09:59:02.373Z,9.57
2023-04-16T10:03:05.910Z,8.45
2023-04-16T10:07:08.030Z,9.77
2023-04-16T10:11:10.911Z,10.13
2023-04-16T10:15:12.847Z,7.78
2023-04-16T10:19:17.922Z,8.00
2023-04-16T10:23:22.004Z,8.05
2023-04-16T10:27:24.783Z,9.65
2023-04-16T10:31:28.032Z,8.98
2023-04-16T10:35:30.724Z,8.75
2023-04-16T10:39:37.692Z,8.57
2023-04-16T10:43:50.931Z,8.40
2023-04-16T10:47:57.279Z,9.70
2023-04-16T10:52:02.395Z,8.13
2023-04-16T10:56:05.013Z,9.00
2023-04-16T11:00:22.864Z,9.30
2023-04-16T11:04:25.170Z,7.90
2023-04-16T11:08:30.245Z,6.80
2023-04-16T11:12:38.284Z,7.97
2023-04-16T11:16:40.983Z,8.18
2023-04-16T11:20:42.918Z,9.00
2023-04-16T11:24:45.843Z,8.73
2023-04-16T11:28:47.716Z,9.88
2023-04-16T11:32:49.550Z,9.32
2023-04-16T11:36:52.478Z,8.35
2023-04-16T11:40:54.322Z,8.68
2023-04-16T11:44:58.364Z,8.38
2023-04-16T11:49:00.261Z,8.43
2023-04-16T11:53:06.496Z,8.45
2023-04-16T11:57:08.388Z,9.57
2023-04-16T12:01:10.957Z,8.93
2023-04-16T12:05:35.542Z,8.73
2023-04-16T12:09:40.692Z,10.05
2023-04-16T12:13:42.859Z,9.45
2023-04-16T12:17:44.808Z,10.20
2023-04-16T12:21:48.833Z,9.43
2023-04-16T12:25:52.221Z,10.35
2023-04-16T12:30:05.151Z,11.43
2023-04-16T12:34:07.059Z,10.60
2023-04-16T12:38:09.254Z,11.23
2023-04-16T12:42:12.948Z,10.75
2023-04-16T12:46:14.768Z,11.18
2023-04-16T12:50:16.713Z,11.52
2023-04-16T12:54:18.601Z,12.25
2023-04-16T12:58:20.488Z,11.63
2023-04-16T13:02:22.907Z,10.70
2023-04-16T13:06:24.996Z,11.75
2023-04-16T13:10:28.094Z,11.02
2023-04-16T13:14:29.859Z,12.27
2023-04-16T13:18:31.707Z,11.65
2023-04-16T13:22:33.915Z,11.13
2023-04-16T13:26:35.970Z,12.07
2023-04-16T13:30:37.820Z,12.68
2023-04-16T13:34:39.801Z,11.02
2023-04-16T13:38:42.405Z,11.05
2023-04-16T13:42:44.363Z,10.98
2023-04-16T13:46:47.986Z,12.23
2023-04-16T13:50:49.866Z,9.80
2023-04-16T13:54:51.642Z,10.00
2023-04-16T13:58:56.365Z,10.07
2023-04-16T14:02:58.296Z,7.95
2023-04-16T14:07:00.604Z,8.05
2023-04-16T14:11:02.480Z,8.02
2023-04-16T14:15:06.983Z,8.95
2023-04-16T14:19:09.444Z,9.88
2023-04-16T14:23:12.689Z,8.65
2023-04-16T14:27:14.544Z,8.25
2023-04-16T14:31:18.293Z,10.60
2023-04-16T14:35:20.553Z,9.63
2023-04-16T14:39:22.426Z,9.85
2023-04-16T14:43:24.230Z,10.50
2023-04-16T14:47:26.067Z,10.48
2023-04-16T14:51:27.944Z,10.85
2023-04-16T14:55:29.969Z,9.75
2023-04-16T14:59:32.613Z,10.43
2023-04-16T15:03:34.727Z,10.40
2023-04-16T15:07:37.380Z,9.25
2023-04-16T15:11:39.364Z,8.25
2023-04-16T15:15:41.563Z,9.50
2023-04-16T15:19:43.648Z,9.68
2023-04-16T15:23:45.517Z,9.10
2023-04-16T15:27:47.336Z,10.02
2023-04-16T15:31:49.146Z,10.27
2023-04-16T15:35:51.903Z,10.35
2023-04-16T15:39:53.944Z,9.85
2023-04-16T15:43:55.820Z,9.15
2023-04-16T15:47:57.881Z,9.95
2023-04-16T15:52:00.584Z,8.27
2023-04-16T15:56:02.458Z,9.85
2023-04-16T16:00:14.002Z,9.75
2023-04-16T16:04:16.394Z,9.52
2023-04-16T16:08:18.667Z,8.85
2023-04-16T16:12:20.440Z,9.00
2023-04-16T16:16:22.347Z,10.25
2023-04-16T16:20:25.137Z,9.25
2023-04-16T16:24:28.296Z,9.85
2023-04-16T16:28:30.079Z,10.00
2023-04-16T16:32:31.984Z,11.15
2023-04-16T16:36:36.917Z,9.45
2023-04-16T16:40:39.851Z,8.80
2023-04-16T16:44:41.937Z,10.63
2023-04-16T16:48:43.877Z,10.82
2023-04-16T16:52:45.833Z,11.40
2023-04-16T16:56:47.653Z,11.25
2023-04-16T17:00:49.552Z,11.02
2023-04-16T17:04:52.880Z,10.60
2023-04-16T17:08:54.701Z,11.02
2023-04-16T17:12:56.509Z,11.93
2023-04-16T17:16:58.391Z,13.52
2023-04-16T17:21:00.465Z,12.38
2023-04-16T17:25:02.417Z,13.68
2023-04-16T17:29:04.692Z,13.52
2023-04-16T17:33:06.617Z,14.52
2023-04-16T17:37:08.509Z,14.48
2023-04-16T17:41:10.570Z,14.30
2023-04-16T17:45:12.684Z,14.30
2023-04-16T17:49:14.454Z,13.55
2023-04-16T17:53:16.264Z,13.88
2023-04-16T17:57:18.061Z,14.80
2023-04-16T18:01:19.965Z,14.45
2023-04-16T18:05:21.957Z,16.02
2023-04-16T18:09:23.770Z,15.20
2023-04-16T18:13:25.637Z,15.35
2023-04-16T18:17:27.525Z,14.02
2023-04-16T18:21:30.536Z,16.30
2023-04-16T18:25:34.893Z,14.82
2023-04-16T18:29:39.694Z,15.95
2023-04-16T18:33:55.803Z,15.82
2023-04-16T18:37:59.508Z,13.77
2023-04-16T18:42:01.759Z,12.80
2023-04-16T18:46:03.602Z,12.48
2023-04-16T18:50:09.606Z,12.45
2023-04-16T18:54:11.648Z,12.85
2023-04-16T18:58:13.464Z,13.80
2023-04-16T19:02:15.322Z,14.35
2023-04-16T19:06:17.492Z,15.98
2023-04-16T19:10:19.332Z,15.73
2023-04-16T19:14:21.493Z,16.30
2023-04-16T19:18:23.283Z,16.20
2023-04-16T19:22:25.060Z,17.08
2023-04-16T19:26:27.212Z,16.42
2023-04-16T19:30:29.519Z,18.60
2023-04-16T19:34:31.278Z,18.73
2023-04-16T19:38:33.119Z,18.42
2023-04-16T19:42:34.898Z,18.17
2023-04-16T19:46:37.300Z,20.58
2023-04-16T19:50:41.122Z,18.77
2023-04-16T19:54:43.486Z,20.33
2023-04-16T19:58:45.358Z,20.67
2023-04-16T20:02:47.268Z,19.73
2023-04-16T20:06:49.284Z,19.98
2023-04-16T20:10:53.473Z,19.20
2023-04-16T20:14:55.422Z,17.48
2023-04-16T20:18:57.820Z,16.40
2023-04-16T20:22:59.846Z,14.88
2023-04-16T20:27:01.976Z,12.88
2023-04-16T20:31:03.823Z,12.52
2023-04-16T20:35:10.598Z,13.55
2023-04-16T20:39:12.848Z,13.32
2023-04-16T20:43:18.874Z,13.00
2023-04-16T20:47:22.349Z,12.23
2023-04-16T20:51:24.193Z,13.50
2023-04-16T20:55:26.098Z,12.98
2023-04-16T20:59:27.860Z,15.38
2023-04-16T21:03:29.874Z,13.82
2023-04-16T21:07:31.872Z,14.77
2023-04-16T21:11:35.265Z,15.07
2023-04-16T21:15:42.003Z,16.30
2023-04-16T21:19:43.937Z,13.95
2023-04-16T21:23:46.390Z,13.75
2023-04-16T21:27:48.242Z,15.00
2023-04-16T21:31:50.087Z,15.77
2023-04-16T21:35:52.739Z,15.88
2023-04-16T21:39:54.601Z,15.35
2023-04-16T21:43:56.426Z,15.43
2023-04-16T21:47:58.497Z,15.27
2023-04-16T21:52:02.585Z,15.48
2023-04-16T21:56:04.963Z,15.73
2023-04-16T22:00:14.432Z,15.88
2023-04-16T22:04:16.280Z,16.35
2023-04-16T22:08:25.060Z,16.08
2023-04-16T22:12:27.053Z,17.42
2023-04-16T22:16:28.865Z,16.95
2023-04-16T22:20:30.988Z,17.35
2023-04-16T22:24:32.811Z,17.88
2023-04-16T22:28:34.652Z,17.48
2023-04-16T22:32:36.588Z,17.42
2023-04-16T22:36:38.548Z,18.98
2023-04-16T22:40:40.611Z,17.67
2023-04-16T22:44:42.471Z,17.08
2023-04-16T22:48:44.416Z,17.65
2023-04-16T22:52:46.192Z,16.58
2023-04-16T22:56:48.786Z,17.75
2023-04-16T23:00:52.182Z,17.33
2023-04-16T23:04:53.983Z,17.67
2023-04-16T23:08:55.851Z,17.52
2023-04-16T23:12:57.719Z,16.05
2023-04-16T23:16:59.646Z,18.83
2023-04-16T23:21:01.455Z,17.27
2023-04-16T23:25:03.335Z,17.73
2023-04-16T23:29:05.199Z,16.02
2023-04-16T23:33:07.004Z,16.77
2023-04-16T23:37:08.917Z,18.48
2023-04-16T23:41:10.690Z,17.55
2023-04-16T23:45:12.879Z,18.30
2023-04-16T23:49:14.658Z,17.33
2023-04-16T23:53:16.668Z,18.52
2023-04-16T23:57:18.490Z,18.92
